createdAt,value
2019-05-05T04:00:40.525Z,7.3
2019-05-05T04:04:09.507Z,8.5
2019-05-05T04:07:39.941Z,7.8
2019-05-05T04:11:11.083Z,6.5
2019-05-05T04:14:39.974Z,8.2
2019-05-05T04:18:08.909Z,8.6
2019-05-05T04:21:39.820Z,7
2019-05-05T04:25:08.767Z,8.4
2019-05-05T04:28:37.715Z,6.9
2019-05-05T04:32:06.645Z,6.8
2019-05-05T04:35:35.595Z,8
2019-05-05T04:39:04.594Z,8.8
2019-05-05T04:42:33.726Z,6.7
2019-05-05T04:46:04.394Z,6.1
2019-05-05T04:49:31.380Z,7.8
2019-05-05T04:52:59.333Z,5.5
2019-05-05T04:56:30.019Z,8.1
2019-05-05T04:59:58.227Z,7
2019-05-05T05:03:27.207Z,6.1
2019-05-05T05:06:56.166Z,7.6
2019-05-05T05:10:25.088Z,7.6
2019-05-05T05:13:54.459Z,8.3
2019-05-05T05:17:25.086Z,5.9
2019-05-05T05:20:54.804Z,3.8
2019-05-05T05:24:23.660Z,6.3
2019-05-05T05:27:50.775Z,6.8
2019-05-05T05:31:19.728Z,4.5
2019-05-05T05:34:48.716Z,6.1
2019-05-05T05:38:18.770Z,7.1
2019-05-05T05:41:48.772Z,5.3
2019-05-05T05:45:19.384Z,8.8
2019-05-05T05:48:48.431Z,14.3
2019-05-05T05:52:21.491Z,5.8
2019-05-05T05:55:50.628Z,5.4
2019-05-05T05:59:19.595Z,6.5
2019-05-05T06:02:48.589Z,7.3
2019-05-05T06:06:18.561Z,6
2019-05-05T06:09:47.538Z,7.1
2019-05-05T06:13:17.612Z,5.9
2019-05-05T06:16:46.541Z,5.7
2019-05-05T06:20:15.517Z,6.2
2019-05-05T06:23:45.672Z,7.9
2019-05-05T06:27:14.685Z,6.6
2019-05-05T06:30:44.261Z,4.4
2019-05-05T06:34:14.010Z,7.3
2019-05-05T06:37:46.673Z,5.7
2019-05-05T06:41:16.180Z,4.9
2019-05-05T06:44:45.992Z,5.2
2019-05-05T06:48:16.212Z,6.2
2019-05-05T06:51:45.191Z,4.5
2019-05-05T06:55:14.259Z,5.9
2019-05-05T06:58:44.212Z,6.3
2019-05-05T07:02:11.858Z,6.1
2019-05-05T20:23:17.186Z,0
2019-05-05T20:26:47.245Z,20.700001
2019-05-05T20:30:18.778Z,20.700001
2019-05-05T20:33:48.762Z,20.700001
2019-05-05T20:37:19.718Z,20.700001
2019-05-05T20:42:44.737Z,20.700001
2019-05-05T20:46:15.578Z,18.9
2019-05-05T20:49:46.513Z,18.9
2019-05-05T20:53:18.520Z,18.9
2019-05-05T20:56:50.413Z,18.9
2019-05-05T21:00:21.388Z,18.9
2019-05-05T21:03:50.359Z,18
2019-05-05T21:07:23.432Z,17.4
2019-05-05T21:10:50.298Z,17.4
2019-05-05T21:14:31.853Z,17.4
2019-05-05T21:17:54.387Z,17.4
2019-05-05T21:21:24.751Z,20.1
2019-05-05T21:24:54.227Z,22
2019-05-05T21:28:24.323Z,22
2019-05-05T21:31:54.906Z,22
2019-05-05T21:35:24.234Z,22
2019-05-05T21:38:54.885Z,22
2019-05-05T21:42:24.208Z,17
2019-05-05T21:45:54.223Z,17
2019-05-05T21:49:24.370Z,17
2019-05-05T21:52:54.172Z,17
2019-05-05T21:56:24.768Z,17
2019-05-05T21:59:58.953Z,11.4
